Avioradar koristi kolačiće da bi Vam omogućio jednostavnije i ugodnije korištenje stranice. 

AVIORADAR - Hrvatski zrakoplovni portal

METAR & TAF

[Source: ADDS]
METAR
LDZA 122330Z 19007KT 110V240 CAVOK 19/11 Q1015 NOSIG =
LDZA 122325Z 1300/1400 VRB02KT 9999 FEW040 TX25/1313Z TN16/1303Z TEMPO 1304/1314 RA PROB30 TEMPO 1308/1314 01015KT SHRA FEW040TCU SCT050 LDSP 122330Z AUTO 08004KT 050V120 CAVOK 23/14 Q1012 =
LDSP 122325Z 1300/1400 10005KT CAVOK TX27/1309Z TN20/1303Z BECMG 1310/1312 23008KT PROB40 TEMPO 1310/1320 TSRA FEW040CB SCT050 BECMG 1314/1316 05008KT BECMG 1317/1319 VRB02KT LDDU 122330Z 02010KT 300V110 9999 FEW050 21/15 Q1012 =
LDDU 122325Z 1300/1400 08008KT 9999 FEW050 TX25/1312Z TN20/1300Z PROB40 TEMPO 1305/1310 33015G25KT 4000 TSRA FEW040CB BKN050 PROB40 1308/1310 03015G25KT BECMG 1310/1312 30012KT PROB30 TEMPO 1314/1320 TSRA FEW040CB SCT050 BECMG 1320/1322 30005KT LDPL 122330Z 06008KT CAVOK 23/10 Q1013 =
LDPL 122325Z 1300/1400 06008KT CAVOK TX27/1312Z TN18/1320Z PROB30 TEMPO 1310/1313 08015KT TS FEW045CB LDZD 122330Z 07010KT 9999 FEW050 23/09 Q1012 NOSIG =
LDZD 122325Z 1300/1400 07008KT 9999 FEW040 TX27/1311Z TN18/1303Z PROB30 TEMPO 1310/1316 31012KT TSRA FEW040CB SCT050 BECMG 1318/1320 VRB02KT LDRI 121800Z 07009KT 010V110 9999 FEW040 26/10 Q1013 =
LDOS 122330Z 25007KT CAVOK 20/14 Q1013 =
LDOS 122325Z 1300/1400 33008KT CAVOK TX27/1313Z TN16/1303Z PROB30 TEMPO 1315/1321 SHRA FEW040TCU SCT050
TAF
LDZA 122325Z 1300/1400 VRB02KT 9999 FEW040 TX25/1313Z TN16/1303Z TEMPO 1304/1314 RA PROB30 TEMPO 1308/1314 01015KT SHRA FEW040TCU SCT050 =
LDSP 122325Z 1300/1400 10005KT CAVOK TX27/1309Z TN20/1303Z BECMG 1310/1312 23008KT PROB40 TEMPO 1310/1320 TSRA FEW040CB SCT050 BECMG 1314/1316 05008KT BECMG 1317/1319 VRB02KT =
LDDU 122325Z 1300/1400 08008KT 9999 FEW050 TX25/1312Z TN20/1300Z PROB40 TEMPO 1305/1310 33015G25KT 4000 TSRA FEW040CB BKN050 PROB40 1308/1310 03015G25KT BECMG 1310/1312 30012KT PROB30 TEMPO 1314/1320 TSRA FEW040CB SCT050 BECMG 1320/1322 30005KT =
LDPL 122325Z 1300/1400 06008KT CAVOK TX27/1312Z TN18/1320Z PROB30 TEMPO 1310/1313 08015KT TS FEW045CB =
LDZD 122325Z 1300/1400 07008KT 9999 FEW040 TX27/1311Z TN18/1303Z PROB30 TEMPO 1310/1316 31012KT TSRA FEW040CB SCT050 BECMG 1318/1320 VRB02KT =
LDOS 122325Z 1300/1400 33008KT CAVOK TX27/1313Z TN16/1303Z PROB30 TEMPO 1315/1321 SHRA FEW040TCU SCT050 =
SR / SS: 03:53 / 18:07 UTC (Zagreb 2022-08-13)